Time;durP1;ratioP1;P1;durP2;ratioP2;P2;SDS_P1;SDS_P2;PMS_P1;PMS_P2;Temp;Humidity;BMP_temperature;BMP_pressure;BME280_temperature;BME280_humidity;BME280_pressure;Samples;Min_cycle;Max_cycle;Signal;HPM_P1;HPM_P2
2021/07/25 00:00:42;;;;;;;20.15;18.20;;;30.80;69.80;;;;;;5103005;28;20055;-41
2021/07/25 00:03:08;;;;;;;19.05;17.25;;;30.80;69.70;;;;;;5068481;28;20016;-41
2021/07/25 00:05:35;;;;;;;19.13;17.27;;;30.80;69.70;;;;;;5084939;28;20051;-41
2021/07/25 00:08:01;;;;;;;18.52;16.77;;;30.80;69.70;;;;;;5103276;28;20079;-41
2021/07/25 00:10:27;;;;;;;19.55;17.65;;;30.80;69.70;;;;;;5103344;28;20035;-41
2021/07/25 00:12:53;;;;;;;17.77;16.07;;;30.80;69.80;;;;;;5103079;28;20036;-41
2021/07/25 00:15:19;;;;;;;18.70;16.90;;;30.70;69.80;;;;;;5084784;28;20295;-41
2021/07/25 00:17:46;;;;;;;18.08;16.38;;;30.70;69.80;;;;;;5102839;28;20040;-43
2021/07/25 00:20:12;;;;;;;18.67;16.92;;;30.70;69.80;;;;;;5103202;28;20027;-41
2021/07/25 00:22:39;;;;;;;19.10;17.40;;;30.70;69.90;;;;;;5103107;28;20036;-41
2021/07/25 00:25:09;;;;;;;19.20;17.35;;;30.70;69.90;;;;;;5084302;28;20031;-42
2021/07/25 00:27:40;;;;;;;19.25;17.42;;;30.70;69.90;;;;;;5103225;28;20036;-42
2021/07/25 00:30:09;;;;;;;19.23;17.33;;;30.70;70.00;;;;;;5103094;28;20024;-42
2021/07/25 00:32:35;;;;;;;19.67;17.88;;;30.70;69.90;;;;;;5103084;28;20032;-41
2021/07/25 00:35:01;;;;;;;19.92;17.95;;;30.70;70.00;;;;;;5084293;28;20048;-43
2021/07/25 00:37:27;;;;;;;19.05;17.25;;;30.70;69.90;;;;;;5087344;28;20029;-42
2021/07/25 00:39:53;;;;;;;19.08;17.17;;;30.70;70.00;;;;;;5077631;28;20476;-42
2021/07/25 00:42:19;;;;;;;19.63;17.67;;;30.60;69.90;;;;;;5106707;28;20024;-42
2021/07/25 00:44:45;;;;;;;18.67;16.87;;;30.60;69.90;;;;;;5106452;28;20293;-42
2021/07/25 00:47:11;;;;;;;18.60;16.80;;;30.60;69.80;;;;;;5106489;28;20257;-41
2021/07/25 00:49:38;;;;;;;19.27;17.45;;;30.60;69.90;;;;;;5106573;28;20028;-41
2021/07/25 00:52:08;;;;;;;19.97;18.07;;;30.60;70.00;;;;;;5106491;28;20020;-42
2021/07/25 00:54:37;;;;;;;18.77;16.98;;;30.60;70.00;;;;;;5106125;28;20317;-42
2021/07/25 00:57:03;;;;;;;19.90;18.00;;;30.60;69.90;;;;;;5106521;28;20025;-41
2021/07/25 00:59:30;;;;;;;20.73;18.73;;;30.60;70.00;;;;;;5094842;28;20041;-41
2021/07/25 01:01:56;;;;;;;20.15;18.25;;;30.60;70.00;;;;;;5086067;28;20036;-41
2021/07/25 01:04:47;;;;;;;19.60;17.70;;;30.50;69.90;;;;;;5085376;28;20027;-42
2021/07/25 01:07:28;;;;;;;19.73;17.83;;;30.50;70.00;;;;;;5085789;28;20028;-41
2021/07/25 01:10:04;;;;;;;19.10;17.30;;;30.50;70.00;;;;;;5084878;28;20025;-41
2021/07/25 01:12:53;;;;;;;19.70;17.80;;;30.50;70.10;;;;;;5085411;28;20044;-42
2021/07/25 01:15:20;;;;;;;19.92;17.92;;;30.50;70.00;;;;;;5085729;28;20032;-41
2021/07/25 01:17:46;;;;;;;19.90;18.02;;;30.50;70.00;;;;;;5071161;28;20017;-42
2021/07/25 01:20:12;;;;;;;20.55;18.55;;;30.50;70.10;;;;;;5106005;28;20051;-42
2021/07/25 01:22:43;;;;;;;19.60;17.70;;;30.50;70.10;;;;;;5105853;28;20024;-42
2021/07/25 01:25:11;;;;;;;20.02;18.13;;;30.40;70.10;;;;;;5105724;28;20060;-41
2021/07/25 01:27:55;;;;;;;20.70;18.70;;;30.50;70.20;;;;;;5087789;28;20035;-43
2021/07/25 01:30:23;;;;;;;20.58;18.58;;;30.40;70.10;;;;;;5105928;28;20028;-41
2021/07/25 01:32:55;;;;;;;19.52;17.70;;;30.40;70.10;;;;;;5105581;28;20028;-42
2021/07/25 01:35:21;;;;;;;19.52;17.63;;;30.40;70.10;;;;;;5086851;28;20071;-43
2021/07/25 01:37:47;;;;;;;19.92;17.92;;;30.40;70.10;;;;;;5070884;28;20032;-42
2021/07/25 01:40:20;;;;;;;19.15;17.25;;;30.40;70.10;;;;;;5105611;28;20028;-41
2021/07/25 01:42:46;;;;;;;19.20;17.30;;;30.40;70.10;;;;;;5105449;28;20024;-43
2021/07/25 01:45:12;;;;;;;19.23;17.38;;;30.30;70.00;;;;;;5105258;28;20024;-42
2021/07/25 01:47:39;;;;;;;20.77;18.77;;;30.30;70.10;;;;;;5104988;28;20032;-42
2021/07/25 01:50:05;;;;;;;18.77;16.92;;;30.30;70.10;;;;;;5087164;28;20051;-43
2021/07/25 01:52:32;;;;;;;19.90;18.00;;;30.30;70.10;;;;;;5104539;28;20062;-43
2021/07/25 01:54:58;;;;;;;20.33;18.35;;;30.30;70.10;;;;;;5105060;28;20032;-43
2021/07/25 01:57:25;;;;;;;20.13;18.23;;;30.30;70.20;;;;;;5105531;28;20036;-41
2021/07/25 01:59:51;;;;;;;20.17;18.17;;;30.30;70.10;;;;;;5105051;28;20048;-43
2021/07/25 02:02:17;;;;;;;20.15;18.25;;;30.30;70.00;;;;;;5105095;28;20053;-42
2021/07/25 02:04:43;;;;;;;19.90;17.90;;;30.30;70.20;;;;;;5104785;28;20027;-42
2021/07/25 02:07:09;;;;;;;20.08;18.17;;;30.30;70.20;;;;;;5105074;28;20085;-42
2021/07/25 02:09:36;;;;;;;19.60;17.73;;;30.20;70.20;;;;;;5104927;28;20036;-43
2021/07/25 02:12:07;;;;;;;20.27;18.35;;;30.20;70.20;;;;;;5086734;28;20028;-43
2021/07/25 02:14:35;;;;;;;19.80;18.00;;;30.20;70.20;;;;;;5104923;28;20032;-42
2021/07/25 02:17:01;;;;;;;19.83;17.92;;;30.20;70.30;;;;;;5104774;28;20496;-42
2021/07/25 02:19:28;;;;;;;20.02;18.13;;;30.20;70.30;;;;;;5104662;28;20099;-43
2021/07/25 02:21:54;;;;;;;20.27;18.35;;;30.20;70.40;;;;;;5086515;28;20054;-43
2021/07/25 02:24:20;;;;;;;20.63;18.63;;;30.20;70.30;;;;;;5104630;28;20101;-42
2021/07/25 02:26:47;;;;;;;20.73;18.73;;;30.20;70.30;;;;;;5104413;28;20032;-42
2021/07/25 02:29:13;;;;;;;;;;;30.10;70.20;;;;;;5104829;28;20265;-42
2021/07/25 02:31:39;;;;;;;19.27;17.45;;;30.20;70.40;;;;;;5104647;28;19965;-42
2021/07/25 02:34:05;;;;;;;19.90;17.90;;;30.10;70.30;;;;;;5104259;28;20036;-42
2021/07/25 02:36:31;;;;;;;20.75;18.70;;;30.10;70.30;;;;;;5104228;28;20111;-42
2021/07/25 02:38:57;;;;;;;20.38;18.42;;;30.10;70.40;;;;;;5104520;28;20111;-43
2021/07/25 02:41:23;;;;;;;20.10;18.13;;;30.10;70.40;;;;;;5104453;28;20020;-43
2021/07/25 02:43:50;;;;;;;20.90;18.80;;;30.10;70.40;;;;;;5104345;28;20032;-43
2021/07/25 02:46:16;;;;;;;20.35;18.38;;;30.10;70.40;;;;;;5104006;28;20031;-43
2021/07/25 02:48:42;;;;;;;19.58;17.65;;;30.00;70.30;;;;;;5104120;28;20118;-43
2021/07/25 02:51:08;;;;;;;19.50;17.67;;;30.10;70.30;;;;;;5104198;28;20052;-43
2021/07/25 02:53:34;;;;;;;19.90;18.00;;;30.10;70.30;;;;;;5103927;28;20024;-43
2021/07/25 02:56:01;;;;;;;20.77;18.77;;;30.00;70.40;;;;;;5103942;28;20679;-43
2021/07/25 02:58:27;;;;;;;20.75;18.75;;;30.00;70.40;;;;;;5104078;28;20024;-44
2021/07/25 03:00:53;;;;;;;21.00;18.93;;;30.00;70.40;;;;;;5103878;28;20130;-42
2021/07/25 03:03:19;;;;;;;20.77;18.77;;;30.00;70.40;;;;;;5084956;28;20265;-43
2021/07/25 03:05:45;;;;;;;21.17;18.97;;;30.00;70.40;;;;;;5103125;28;20028;-42
2021/07/25 03:08:11;;;;;;;21.33;19.23;;;30.00;70.30;;;;;;5103887;28;20249;-43
2021/07/25 03:10:39;;;;;;;21.75;19.65;;;30.00;70.30;;;;;;5098877;28;20259;-43
2021/07/25 03:13:06;;;;;;;20.58;18.58;;;30.00;70.30;;;;;;5103490;28;20039;-42
2021/07/25 03:15:32;;;;;;;20.73;18.63;;;30.00;70.30;;;;;;5103749;28;20105;-42
2021/07/25 03:17:58;;;;;;;21.65;19.55;;;29.90;70.30;;;;;;5103641;28;20028;-42
2021/07/25 03:20:26;;;;;;;20.95;18.90;;;29.90;70.30;;;;;;5103972;28;20063;-43
2021/07/25 03:22:53;;;;;;;19.90;18.00;;;29.90;70.20;;;;;;5085766;28;20119;-42
2021/07/25 03:25:19;;;;;;;20.65;18.65;;;29.90;70.30;;;;;;5103634;28;20039;-42
2021/07/25 03:27:45;;;;;;;20.52;18.63;;;29.90;70.20;;;;;;5103316;28;20142;-43
2021/07/25 03:30:11;;;;;;;20.05;18.15;;;29.80;70.10;;;;;;5103624;28;20029;-43
2021/07/25 03:32:38;;;;;;;19.70;17.80;;;29.80;70.10;;;;;;5103259;28;20024;-42
2021/07/25 03:35:04;;;;;;;20.60;18.60;;;29.80;70.20;;;;;;5085393;28;20067;-44
2021/07/25 03:37:31;;;;;;;20.33;18.35;;;29.80;70.20;;;;;;5103268;28;20435;-42
2021/07/25 03:39:57;;;;;;;20.38;18.33;;;29.80;70.30;;;;;;5103548;28;20056;-42
2021/07/25 03:42:23;;;;;;;19.77;17.88;;;29.80;70.40;;;;;;5103458;28;20027;-42
2021/07/25 03:44:49;;;;;;;20.98;18.88;;;29.80;70.30;;;;;;5103493;28;20043;-43
2021/07/25 03:47:16;;;;;;;20.77;18.77;;;29.80;70.30;;;;;;5103391;28;20032;-43
2021/07/25 03:49:42;;;;;;;20.75;18.40;;;29.70;70.20;;;;;;5103324;28;20036;-43
2021/07/25 03:52:14;;;;;;;20.42;18.42;;;29.70;70.20;;;;;;5103120;28;20028;-43
2021/07/25 03:54:42;;;;;;;19.88;17.88;;;29.70;70.20;;;;;;5085654;28;20043;-42
2021/07/25 03:57:09;;;;;;;20.25;18.33;;;29.70;70.10;;;;;;5102631;28;20434;-42
2021/07/25 03:59:36;;;;;;;20.60;18.60;;;29.70;70.20;;;;;;5103229;28;20052;-43
2021/07/25 04:02:03;;;;;;;20.52;18.45;;;29.70;70.00;;;;;;5103297;28;20031;-42
2021/07/25 04:04:29;;;;;;;20.15;18.15;;;29.70;70.10;;;;;;5103193;28;20088;-42
2021/07/25 04:06:56;;;;;;;19.63;17.65;;;29.70;70.10;;;;;;5102959;28;20024;-42
2021/07/25 04:09:22;;;;;;;19.45;17.65;;;29.70;70.10;;;;;;5094457;28;20028;-42
2021/07/25 04:11:55;;;;;;;20.33;18.43;;;29.70;70.10;;;;;;5082976;28;20028;-43
2021/07/25 04:14:22;;;;;;;20.63;18.55;;;29.60;70.10;;;;;;5082961;28;20033;-42
2021/07/25 04:16:48;;;;;;;;;;;29.60;70.10;;;;;;5086284;28;20442;-42
2021/07/25 04:19:15;;;;;;;20.38;18.38;;;29.60;70.10;;;;;;5097347;28;19979;-42
2021/07/25 04:21:41;;;;;;;20.65;18.60;;;29.60;70.10;;;;;;5107083;28;20503;-42
2021/07/25 04:24:07;;;;;;;20.42;18.42;;;29.60;70.10;;;;;;5106855;28;20036;-42
2021/07/25 04:26:33;;;;;;;21.42;19.35;;;29.60;70.30;;;;;;5106991;28;20020;-42
2021/07/25 04:29:00;;;;;;;20.50;18.55;;;29.60;70.30;;;;;;5107096;28;20544;-43
2021/07/25 04:31:26;;;;;;;21.70;19.58;;;29.60;70.30;;;;;;5106695;28;20070;-43
2021/07/25 04:33:54;;;;;;;20.65;18.65;;;29.50;70.30;;;;;;5106675;28;20066;-41
2021/07/25 04:36:27;;;;;;;19.92;18.05;;;29.50;70.20;;;;;;5106907;28;20031;-42
2021/07/25 04:38:54;;;;;;;20.83;18.73;;;29.50;70.20;;;;;;5106774;28;20020;-43
2021/07/25 04:41:31;;;;;;;20.50;18.60;;;29.50;70.10;;;;;;5106448;28;20109;-42
2021/07/25 04:44:16;;;;;;;19.92;17.92;;;29.50;70.10;;;;;;5106891;28;20176;-42
2021/07/25 04:46:46;;;;;;;20.23;18.30;;;29.50;70.20;;;;;;5106798;28;20036;-43
2021/07/25 04:49:13;;;;;;;20.77;18.67;;;29.40;70.10;;;;;;5106366;28;20048;-43
2021/07/25 04:51:40;;;;;;;20.23;18.27;;;29.50;70.10;;;;;;5087957;28;20039;-43
2021/07/25 04:54:11;;;;;;;21.38;19.25;;;29.40;70.00;;;;;;5106430;28;20050;-43
2021/07/25 04:56:48;;;;;;;20.95;18.75;;;29.40;70.10;;;;;;5106610;28;20032;-42
2021/07/25 04:59:19;;;;;;;20.05;18.15;;;29.40;70.00;;;;;;5106344;28;20515;-43
2021/07/25 05:01:47;;;;;;;20.45;18.45;;;29.40;70.00;;;;;;5105740;28;20096;-42
2021/07/25 05:04:14;;;;;;;22.55;19.48;;;29.40;70.00;;;;;;5106318;28;20023;-43
2021/07/25 05:06:40;;;;;;;20.67;18.58;;;29.40;70.80;;;;;;5088192;28;20046;-43
2021/07/25 05:09:06;;;;;;;20.13;18.02;;;29.40;70.00;;;;;;5099486;28;20845;-44
2021/07/25 05:11:38;;;;;;;20.35;18.35;;;29.40;70.10;;;;;;5085649;28;20028;-42
2021/07/25 05:14:05;;;;;;;21.38;19.27;;;29.40;70.20;;;;;;5105287;28;20040;-43
2021/07/25 05:16:34;;;;;;;19.43;17.47;;;29.30;70.00;;;;;;5087831;28;20016;-42
2021/07/25 05:19:28;;;;;;;20.48;18.48;;;29.30;70.10;;;;;;5087658;28;20269;-43
2021/07/25 05:22:29;;;;;;;20.98;18.88;;;29.30;70.00;;;;;;5105636;28;20028;-43
2021/07/25 05:24:55;;;;;;;19.98;18.08;;;29.30;70.10;;;;;;5087780;28;20032;-43
2021/07/25 05:27:23;;;;;;;21.10;18.90;;;29.30;70.10;;;;;;5070182;28;20042;-45
2021/07/25 05:29:50;;;;;;;21.35;19.33;;;29.30;70.10;;;;;;5105795;28;20043;-42
2021/07/25 05:32:16;;;;;;;;;;;29.30;70.00;;;;;;5106012;28;20099;-42
2021/07/25 05:34:42;;;;;;;19.75;17.88;;;29.20;70.00;;;;;;5105576;28;19989;-43
2021/07/25 05:37:08;;;;;;;20.75;18.75;;;29.30;70.10;;;;;;5087543;28;20051;-42
2021/07/25 05:39:34;;;;;;;20.83;18.73;;;29.20;70.00;;;;;;5105750;28;20536;-43
2021/07/25 05:42:00;;;;;;;21.60;19.42;;;29.20;69.90;;;;;;5105304;28;20028;-42
2021/07/25 05:44:27;;;;;;;20.87;18.67;;;29.20;69.90;;;;;;5105649;28;20032;-43
2021/07/25 05:46:53;;;;;;;20.10;18.08;;;29.20;70.10;;;;;;5105530;28;20020;-42
2021/07/25 05:49:20;;;;;;;20.45;18.38;;;29.20;69.90;;;;;;5105447;28;20058;-42
2021/07/25 05:51:46;;;;;;;20.20;18.27;;;29.20;70.10;;;;;;5105161;28;20051;-44
2021/07/25 05:54:12;;;;;;;20.00;18.10;;;29.20;70.00;;;;;;5105013;28;20059;-42
2021/07/25 05:56:38;;;;;;;20.37;18.27;;;29.10;69.80;;;;;;5105456;28;20265;-42
2021/07/25 05:59:06;;;;;;;20.83;18.83;;;29.10;70.10;;;;;;5105163;28;20036;-43
2021/07/25 06:01:33;;;;;;;21.30;19.23;;;29.10;69.90;;;;;;5104336;28;20051;-42
2021/07/25 06:03:59;;;;;;;20.42;18.42;;;29.10;70.30;;;;;;5105154;28;20056;-43
2021/07/25 06:06:25;;;;;;;20.70;18.67;;;29.10;70.80;;;;;;5104801;28;20032;-43
2021/07/25 06:08:51;;;;;;;20.60;18.60;;;29.10;70.00;;;;;;5105077;28;20481;-42
2021/07/25 06:11:22;;;;;;;20.67;18.67;;;29.10;70.30;;;;;;5104742;28;20077;-42
2021/07/25 06:13:48;;;;;;;21.42;19.27;;;29.10;70.10;;;;;;5104853;28;20036;-42
2021/07/25 06:16:15;;;;;;;21.45;19.25;;;29.00;69.90;;;;;;5105082;28;20435;-43
2021/07/25 06:18:41;;;;;;;21.55;19.45;;;29.10;70.30;;;;;;5104911;28;20358;-42
2021/07/25 06:21:07;;;;;;;19.45;17.58;;;29.00;70.20;;;;;;5104413;28;20031;-43
2021/07/25 06:23:34;;;;;;;21.15;19.02;;;29.00;70.20;;;;;;5104346;28;20056;-42
2021/07/25 06:26:00;;;;;;;20.53;18.33;;;29.00;70.20;;;;;;5104650;28;20035;-43
2021/07/25 06:28:26;;;;;;;21.38;19.17;;;29.00;70.30;;;;;;5104600;28;20077;-43
2021/07/25 06:30:52;;;;;;;21.07;18.90;;;29.00;70.30;;;;;;5104689;28;20032;-42
2021/07/25 06:33:18;;;;;;;20.20;18.30;;;29.00;70.30;;;;;;5103907;28;20378;-43
2021/07/25 06:35:45;;;;;;;20.40;18.13;;;29.00;70.30;;;;;;5104451;28;20036;-43
2021/07/25 06:38:14;;;;;;;;;;;29.00;70.40;;;;;;5104464;28;20295;-43
2021/07/25 06:40:42;;;;;;;19.80;17.90;;;28.90;70.20;;;;;;5104452;28;20048;-43
2021/07/25 06:43:09;;;;;;;20.15;18.15;;;28.90;70.10;;;;;;5104269;28;20028;-43
2021/07/25 06:45:35;;;;;;;21.20;19.10;;;28.90;70.20;;;;;;5104338;28;20504;-43
2021/07/25 06:48:01;;;;;;;20.27;18.27;;;28.90;70.00;;;;;;5104326;28;20036;-43
2021/07/25 06:50:29;;;;;;;19.83;17.90;;;28.90;70.20;;;;;;5104000;28;20045;-43
2021/07/25 06:52:56;;;;;;;20.75;18.70;;;28.80;70.10;;;;;;5103654;28;20040;-43
2021/07/25 06:55:22;;;;;;;;;;;28.80;70.00;;;;;;5104798;28;20047;-44
2021/07/25 06:57:49;;;;;;;19.58;17.60;;;28.90;70.10;;;;;;5085779;28;20111;-43
2021/07/25 07:00:15;;;;;;;20.65;18.65;;;28.80;70.10;;;;;;5104008;28;20062;-43
2021/07/25 07:02:46;;;;;;;21.55;19.45;;;28.80;70.10;;;;;;5103676;28;20057;-42
2021/07/25 07:05:24;;;;;;;19.75;17.80;;;28.80;70.00;;;;;;5103906;28;20083;-43
2021/07/25 07:07:52;;;;;;;21.83;19.63;;;28.80;70.20;;;;;;5103875;28;20087;-43
2021/07/25 07:10:20;;;;;;;20.60;18.52;;;28.80;70.10;;;;;;5103896;28;20409;-42
2021/07/25 07:12:46;;;;;;;20.00;18.02;;;28.80;70.10;;;;;;5103578;28;20031;-42
2021/07/25 07:15:13;;;;;;;21.13;19.08;;;28.80;70.00;;;;;;5103917;28;20028;-42
2021/07/25 07:17:39;;;;;;;19.42;17.63;;;28.80;70.10;;;;;;5103927;28;20098;-44
2021/07/25 07:20:07;;;;;;;20.02;18.13;;;28.80;70.00;;;;;;5103392;28;20028;-43
2021/07/25 07:22:33;;;;;;;20.02;18.02;;;28.70;69.90;;;;;;5085093;28;20036;-42
2021/07/25 07:24:59;;;;;;;20.48;18.48;;;28.70;70.10;;;;;;5103582;28;20028;-43
2021/07/25 07:27:25;;;;;;;20.77;18.67;;;28.70;70.10;;;;;;5103686;28;20026;-43
2021/07/25 07:29:52;;;;;;;21.17;19.08;;;28.70;70.00;;;;;;5103534;28;20028;-42
2021/07/25 07:32:18;;;;;;;20.00;18.00;;;28.70;70.10;;;;;;5103146;28;20563;-42
2021/07/25 07:34:44;;;;;;;20.87;18.73;;;28.70;70.20;;;;;;5103138;28;20047;-42
2021/07/25 07:37:10;;;;;;;20.80;18.53;;;28.70;70.00;;;;;;5103608;28;20055;-42
2021/07/25 07:39:37;;;;;;;20.40;18.37;;;28.70;70.00;;;;;;5103493;28;20039;-43
2021/07/25 07:42:04;;;;;;;20.33;18.38;;;28.60;70.00;;;;;;5102738;28;20065;-42
2021/07/25 07:44:31;;;;;;;19.42;17.52;;;28.60;70.10;;;;;;5103330;28;20024;-43
2021/07/25 07:46:57;;;;;;;19.75;17.75;;;28.60;70.10;;;;;;5103482;28;20825;-44
2021/07/25 07:49:23;;;;;;;20.02;18.08;;;28.60;70.10;;;;;;5103226;28;20023;-43
2021/07/25 07:51:49;;;;;;;20.00;17.97;;;28.60;70.10;;;;;;5102452;28;20032;-43
2021/07/25 07:54:16;;;;;;;20.57;18.50;;;28.60;70.00;;;;;;5103045;28;20787;-43
2021/07/25 07:56:42;;;;;;;20.60;18.60;;;28.60;70.10;;;;;;5103448;28;20043;-43
2021/07/25 07:59:08;;;;;;;19.67;17.73;;;28.60;70.00;;;;;;5103269;28;20113;-43
2021/07/25 08:01:35;;;;;;;19.63;17.73;;;28.60;70.10;;;;;;5103035;28;20039;-42
2021/07/25 08:04:01;;;;;;;21.63;19.05;;;28.50;70.00;;;;;;5102891;28;20044;-42
2021/07/25 08:06:27;;;;;;;20.67;18.57;;;28.50;70.00;;;;;;5103314;28;20028;-42
2021/07/25 08:08:53;;;;;;;20.87;18.77;;;28.50;70.00;;;;;;5102998;28;20020;-42
2021/07/25 08:11:19;;;;;;;20.60;18.57;;;28.50;70.00;;;;;;5102906;28;20032;-43
2021/07/25 08:13:45;;;;;;;20.60;18.40;;;28.50;70.10;;;;;;5084732;28;20043;-43
2021/07/25 08:16:12;;;;;;;20.40;18.43;;;28.50;70.00;;;;;;5103109;28;20272;-42
2021/07/25 08:18:38;;;;;;;20.15;18.15;;;28.50;70.10;;;;;;5103022;28;20028;-43
2021/07/25 08:21:04;;;;;;;19.63;17.63;;;28.50;70.10;;;;;;5085009;28;20028;-42
2021/07/25 08:23:30;;;;;;;21.25;19.13;;;28.50;70.10;;;;;;5102767;28;20028;-43
2021/07/25 08:25:57;;;;;;;20.33;18.38;;;28.50;70.10;;;;;;5085037;28;20779;-42
2021/07/25 08:28:23;;;;;;;19.70;17.67;;;28.40;70.10;;;;;;5103107;28;20032;-42
2021/07/25 08:30:49;;;;;;;20.57;18.47;;;28.40;70.00;;;;;;5102993;28;20032;-43
2021/07/25 08:33:15;;;;;;;20.20;18.23;;;28.40;70.20;;;;;;5102405;28;20043;-42
2021/07/25 08:35:41;;;;;;;20.43;18.30;;;28.40;70.10;;;;;;5102988;28;20039;-42
2021/07/25 08:38:07;;;;;;;21.33;19.23;;;28.40;70.10;;;;;;5103083;28;20267;-43
2021/07/25 08:40:34;;;;;;;19.75;17.75;;;28.40;70.10;;;;;;5102906;28;20035;-42
2021/07/25 08:43:12;;;;;;;19.77;17.85;;;28.40;70.20;;;;;;5103014;28;20043;-43
2021/07/25 08:45:44;;;;;;;19.95;18.05;;;28.40;70.20;;;;;;5102477;28;20029;-43
2021/07/25 08:48:15;;;;;;;20.00;18.05;;;28.40;70.30;;;;;;5102470;28;20024;-43
2021/07/25 08:50:49;;;;;;;19.58;17.67;;;28.30;70.10;;;;;;5102683;28;20020;-43
2021/07/25 08:53:17;;;;;;;19.50;17.60;;;28.30;70.20;;;;;;5084433;28;20089;-42
2021/07/25 08:55:44;;;;;;;19.95;17.85;;;28.30;70.20;;;;;;5102560;28;20077;-42
2021/07/25 08:58:12;;;;;;;19.40;17.40;;;28.30;70.20;;;;;;5102686;28;20032;-42
2021/07/25 09:00:38;;;;;;;20.35;18.38;;;28.30;70.20;;;;;;5102532;28;20053;-43
2021/07/25 09:03:09;;;;;;;20.15;18.20;;;28.30;70.20;;;;;;5104311;28;20042;-43
2021/07/25 09:05:35;;;;;;;20.08;18.08;;;28.30;70.30;;;;;;5105762;28;20042;-43
2021/07/25 09:08:05;;;;;;;19.90;17.90;;;28.30;70.20;;;;;;5088136;28;20024;-43
2021/07/25 09:10:31;;;;;;;19.30;17.38;;;28.30;70.10;;;;;;5105682;28;20060;-43
2021/07/25 09:12:57;;;;;;;19.40;17.50;;;28.30;70.10;;;;;;5106130;28;20024;-43
2021/07/25 09:15:26;;;;;;;19.80;17.90;;;28.30;70.30;;;;;;5105932;28;20373;-43
2021/07/25 09:17:55;;;;;;;19.63;17.73;;;28.20;70.10;;;;;;5106279;28;20131;-42
2021/07/25 09:20:28;;;;;;;20.05;17.98;;;28.20;70.20;;;;;;5105736;28;20031;-42
2021/07/25 09:22:57;;;;;;;19.42;17.63;;;28.20;70.30;;;;;;5105735;28;20043;-42
2021/07/25 09:25:27;;;;;;;19.10;17.25;;;28.20;70.30;;;;;;5105631;28;20036;-42
2021/07/25 09:27:59;;;;;;;20.30;18.40;;;28.20;70.30;;;;;;5087428;28;20028;-43
2021/07/25 09:30:29;;;;;;;20.20;18.20;;;28.20;70.20;;;;;;5105753;28;20502;-43
2021/07/25 09:32:56;;;;;;;19.02;17.20;;;28.20;70.30;;;;;;5105396;28;20531;-43
2021/07/25 09:35:42;;;;;;;;;;;28.20;70.30;;;;;;5105752;28;20044;-42
2021/07/25 09:38:09;;;;;;;19.13;17.30;;;28.10;70.20;;;;;;5105608;28;19926;-43
2021/07/25 09:40:38;;;;;;;20.02;17.95;;;28.10;70.20;;;;;;5105527;28;20059;-42
2021/07/25 09:43:29;;;;;;;20.70;18.70;;;28.10;70.20;;;;;;5105364;28;20039;-42
2021/07/25 09:45:57;;;;;;;20.35;18.35;;;28.10;70.20;;;;;;5104957;28;20028;-42
2021/07/25 09:48:27;;;;;;;19.13;17.33;;;28.10;70.10;;;;;;5105537;28;20016;-43
2021/07/25 09:50:56;;;;;;;20.38;18.40;;;28.10;70.20;;;;;;5105261;28;20028;-42
2021/07/25 09:53:22;;;;;;;20.08;18.08;;;28.10;70.20;;;;;;5105083;28;20028;-42
2021/07/25 09:55:49;;;;;;;19.40;17.50;;;28.10;70.20;;;;;;5105127;28;20035;-43
2021/07/25 09:58:15;;;;;;;20.02;18.02;;;28.10;70.20;;;;;;5105327;28;20035;-43
2021/07/25 10:00:45;;;;;;;20.47;18.47;;;28.00;70.10;;;;;;5105006;28;20051;-43
2021/07/25 10:03:21;;;;;;;20.40;18.40;;;28.00;70.20;;;;;;5105125;28;20293;-42
2021/07/25 10:05:51;;;;;;;19.70;17.83;;;28.00;70.20;;;;;;5104624;28;20024;-42
2021/07/25 10:08:21;;;;;;;19.23;17.33;;;28.00;70.20;;;;;;5086635;28;20024;-43
2021/07/25 10:10:54;;;;;;;19.50;17.67;;;28.00;70.20;;;;;;5098921;28;20027;-44
2021/07/25 10:13:26;;;;;;;19.80;17.83;;;28.00;70.20;;;;;;5104079;28;20032;-43
2021/07/25 10:15:59;;;;;;;20.05;17.98;;;28.00;70.30;;;;;;5104606;28;20024;-43
2021/07/25 10:18:26;;;;;;;18.50;16.70;;;28.00;70.20;;;;;;5104232;28;20051;-42
2021/07/25 10:20:59;;;;;;;19.95;18.05;;;28.00;70.30;;;;;;5104560;28;20024;-43
2021/07/25 10:23:34;;;;;;;19.75;17.75;;;27.90;70.10;;;;;;5104415;28;20492;-42
2021/07/25 10:26:03;;;;;;;19.02;17.17;;;27.90;70.20;;;;;;5104434;28;20097;-43
2021/07/25 10:28:33;;;;;;;20.27;18.27;;;27.90;70.20;;;;;;5104679;28;20051;-43
2021/07/25 10:31:02;;;;;;;20.17;18.17;;;27.90;70.20;;;;;;5104459;28;20073;-43
2021/07/25 10:33:28;;;;;;;19.27;17.40;;;27.90;70.20;;;;;;5104483;28;20035;-43
2021/07/25 10:35:58;;;;;;;19.60;17.67;;;27.90;70.20;;;;;;5085790;28;20032;-42
2021/07/25 10:38:24;;;;;;;19.60;17.70;;;27.90;70.20;;;;;;5104255;28;20105;-42
2021/07/25 10:40:50;;;;;;;19.63;17.70;;;27.90;70.20;;;;;;5104383;28;20024;-43
2021/07/25 10:43:20;;;;;;;19.30;17.40;;;27.90;70.20;;;;;;5086062;28;20036;-43
2021/07/25 10:46:14;;;;;;;19.17;17.27;;;27.90;70.30;;;;;;5086461;28;20039;-43
2021/07/25 10:49:03;;;;;;;20.05;18.08;;;27.80;70.30;;;;;;5104311;28;20028;-43
2021/07/25 10:51:33;;;;;;;19.77;17.77;;;27.80;70.30;;;;;;5085711;28;20031;-43
2021/07/25 10:54:24;;;;;;;19.15;17.10;;;27.80;70.20;;;;;;5103949;28;20058;-43
2021/07/25 10:56:59;;;;;;;18.83;17.02;;;27.80;70.30;;;;;;5103712;28;20028;-43
2021/07/25 10:59:47;;;;;;;19.95;17.98;;;27.80;70.30;;;;;;5103795;28;20115;-43
2021/07/25 11:02:22;;;;;;;18.80;16.95;;;27.80;70.40;;;;;;5103900;28;20054;-43
2021/07/25 11:04:51;;;;;;;19.33;17.42;;;27.70;70.20;;;;;;5103632;28;20025;-42
2021/07/25 11:07:23;;;;;;;19.67;17.77;;;27.80;70.40;;;;;;5103718;28;20024;-43
2021/07/25 11:09:59;;;;;;;18.50;16.70;;;27.70;70.30;;;;;;5103756;28;20064;-42
2021/07/25 11:12:25;;;;;;;18.45;16.65;;;27.70;70.30;;;;;;5103736;28;20123;-43
2021/07/25 11:14:59;;;;;;;19.77;17.77;;;27.70;70.30;;;;;;5085275;28;20147;-43
2021/07/25 11:17:44;;;;;;;18.75;16.95;;;27.70;70.40;;;;;;5103419;28;20036;-43
2021/07/25 11:20:30;;;;;;;19.75;17.42;;;27.70;70.50;;;;;;5103452;28;20028;-43
2021/07/25 11:22:56;;;;;;;19.65;17.70;;;27.70;70.30;;;;;;5103296;28;20077;-43
2021/07/25 11:25:32;;;;;;;19.83;17.83;;;27.70;70.30;;;;;;5102608;28;20062;-43
2021/07/25 11:27:58;;;;;;;19.42;17.42;;;27.70;70.40;;;;;;5102621;28;20060;-43
2021/07/25 11:30:52;;;;;;;20.58;18.42;;;27.70;70.40;;;;;;5102789;28;20043;-43
2021/07/25 11:33:40;;;;;;;19.10;17.27;;;27.70;70.40;;;;;;5103222;28;20541;-43
2021/07/25 11:36:14;;;;;;;18.60;16.80;;;27.70;70.40;;;;;;5102937;28;20048;-42
2021/07/25 11:38:40;;;;;;;19.92;17.98;;;27.60;70.50;;;;;;5103427;28;20409;-42
2021/07/25 11:41:07;;;;;;;18.42;16.58;;;27.60;70.40;;;;;;5084981;28;20028;-43
2021/07/25 11:43:52;;;;;;;;;;;27.60;70.50;;;;;;5103639;28;20040;-43
2021/07/25 11:46:31;;;;;;;18.23;16.48;;;27.60;70.50;;;;;;5103080;28;19908;-43
2021/07/25 11:49:27;;;;;;;19.15;17.25;;;27.60;70.50;;;;;;5103194;28;20115;-43
2021/07/25 11:52:04;;;;;;;18.73;16.77;;;27.60;70.50;;;;;;5094110;28;20040;-43
2021/07/25 11:54:31;;;;;;;19.30;17.40;;;27.60;70.60;;;;;;5082716;28;20051;-42
2021/07/25 11:56:58;;;;;;;;;;;27.60;70.50;;;;;;5083051;28;20039;-42
2021/07/25 11:59:24;;;;;;;19.08;17.17;;;27.50;70.50;;;;;;5082517;28;19917;-42
2021/07/25 12:01:50;;;;;;;19.13;17.23;;;27.50;70.50;;;;;;5064633;28;20029;-43
2021/07/25 12:04:21;;;;;;;19.13;17.23;;;27.50;70.60;;;;;;5082746;28;20041;-42
2021/07/25 12:06:53;;;;;;;18.20;16.48;;;27.50;70.50;;;;;;5082502;28;20342;-42
2021/07/25 12:09:19;;;;;;;19.88;17.98;;;27.50;70.60;;;;;;5072584;28;20043;-43
2021/07/25 12:11:45;;;;;;;18.97;17.13;;;27.50;70.60;;;;;;5103068;28;20024;-43
2021/07/25 12:14:12;;;;;;;18.92;17.13;;;27.50;70.60;;;;;;5102990;28;20047;-43
2021/07/25 12:16:48;;;;;;;18.03;16.33;;;27.50;70.60;;;;;;5102632;28;20027;-42
2021/07/25 12:19:18;;;;;;;18.75;16.95;;;27.50;70.60;;;;;;5102722;28;20134;-42
2021/07/25 12:21:45;;;;;;;18.85;17.02;;;27.50;70.70;;;;;;5102831;28;20035;-43
2021/07/25 12:24:28;;;;;;;18.90;17.10;;;27.40;70.50;;;;;;5102445;28;20564;-43
2021/07/25 12:26:54;;;;;;;18.67;16.98;;;27.40;70.60;;;;;;5084280;28;20036;-43
2021/07/25 12:29:42;;;;;;;19.13;17.23;;;27.50;70.70;;;;;;5103023;28;20078;-43
2021/07/25 12:32:30;;;;;;;18.35;16.60;;;27.50;70.70;;;;;;5102735;28;20032;-42
2021/07/25 12:35:09;;;;;;;18.35;16.48;;;27.50;70.70;;;;;;5101909;28;20111;-43
2021/07/25 12:37:41;;;;;;;19.00;17.20;;;27.40;70.70;;;;;;5104990;28;20489;-42
2021/07/25 12:40:18;;;;;;;18.98;17.08;;;27.40;70.60;;;;;;5106357;28;20024;-42